createdAt,value
2022-11-10T00:01:10.859Z,14.98
2022-11-10T00:03:39.481Z,15.02
2022-11-10T00:06:08.961Z,14.38
2022-11-10T00:08:36.388Z,14.48
2022-11-10T00:11:07.821Z,15.50
2022-11-10T00:13:56.936Z,13.75
2022-11-10T00:16:42.877Z,13.32
2022-11-10T00:19:09.900Z,13.73
2022-11-10T00:21:37.970Z,13.30
2022-11-10T00:24:05.574Z,12.80
2022-11-10T00:26:32.549Z,11.43
2022-11-10T00:28:59.500Z,12.52
2022-11-10T00:31:28.758Z,11.65
2022-11-10T00:33:56.295Z,11.27
2022-11-10T00:36:23.679Z,10.85
2022-11-10T00:38:51.503Z,13.20
2022-11-10T00:41:18.350Z,12.07
2022-11-10T00:43:45.195Z,11.07
2022-11-10T00:46:12.315Z,11.38
2022-11-10T00:48:39.203Z,10.35
2022-11-10T00:51:06.389Z,11.38
2022-11-10T00:53:33.430Z,11.32
2022-11-10T00:56:00.283Z,11.05
2022-11-10T00:58:27.086Z,10.68
2022-11-10T01:01:02.414Z,10.77
2022-11-10T01:03:29.490Z,11.07
2022-11-10T01:05:56.486Z,11.40
2022-11-10T01:08:24.058Z,11.25
2022-11-10T01:10:51.006Z,10.80
2022-11-10T01:13:17.845Z,11.45
2022-11-10T01:15:44.674Z,11.45
2022-11-10T01:18:11.605Z,11.05
2022-11-10T01:20:38.529Z,11.38
2022-11-10T01:23:05.413Z,10.63
2022-11-10T01:25:32.586Z,11.18
2022-11-10T01:27:59.421Z,11.05
2022-11-10T01:30:26.511Z,10.82
2022-11-10T01:32:55.167Z,10.95
2022-11-10T01:35:22.289Z,10.88
2022-11-10T01:37:51.207Z,11.13
2022-11-10T01:40:18.270Z,11.57
2022-11-10T01:43:05.354Z,11.50
2022-11-10T01:45:39.644Z,10.77
2022-11-10T01:48:08.910Z,10.07
2022-11-10T01:50:40.257Z,11.57
2022-11-10T01:53:11.038Z,11.80
2022-11-10T01:55:41.739Z,11.00
2022-11-10T01:58:09.764Z,10.25
2022-11-10T02:00:36.740Z,10.25
2022-11-10T02:03:53.336Z,10.50
2022-11-10T02:06:22.824Z,10.15
2022-11-10T02:08:50.960Z,10.68
2022-11-10T02:11:17.856Z,9.52
2022-11-10T02:13:44.892Z,9.80
2022-11-10T02:16:13.343Z,9.05
2022-11-10T02:18:40.225Z,9.90
2022-11-10T02:21:09.256Z,9.30
2022-11-10T02:23:36.339Z,8.30
2022-11-10T02:26:06.001Z,9.13
2022-11-10T02:28:38.219Z,8.98
2022-11-10T02:31:06.592Z,8.68
2022-11-10T02:33:33.431Z,9.55
2022-11-10T02:36:00.229Z,9.77
2022-11-10T02:38:27.124Z,9.10
2022-11-10T02:40:54.016Z,9.45
2022-11-10T02:43:21.240Z,9.18
2022-11-10T02:45:48.323Z,9.43
2022-11-10T02:48:16.390Z,8.40
2022-11-10T02:50:43.900Z,8.77
2022-11-10T02:53:11.121Z,9.00
2022-11-10T02:55:38.073Z,8.45
2022-11-10T02:58:05.113Z,8.98
2022-11-10T03:00:32.370Z,9.70
2022-11-10T03:03:02.145Z,9.20
2022-11-10T03:05:30.327Z,9.48
2022-11-10T03:07:59.671Z,8.48
2022-11-10T03:10:27.568Z,8.63
2022-11-10T03:12:55.880Z,9.73
2022-11-10T03:15:23.093Z,11.10
2022-11-10T03:17:50.212Z,9.52
2022-11-10T03:20:18.203Z,9.18
2022-11-10T03:22:45.360Z,9.73
2022-11-10T03:25:12.750Z,9.85
2022-11-10T03:27:39.850Z,9.45
2022-11-10T03:30:07.624Z,10.52
2022-11-10T03:32:34.755Z,10.18
2022-11-10T03:35:02.393Z,9.77
2022-11-10T03:37:29.267Z,9.30
2022-11-10T03:39:56.104Z,9.43
2022-11-10T03:42:22.961Z,10.45
2022-11-10T03:44:49.749Z,9.88
2022-11-10T03:47:16.668Z,10.43
2022-11-10T03:49:43.535Z,9.25
2022-11-10T03:52:10.348Z,9.77
2022-11-10T03:54:37.130Z,9.23
2022-11-10T03:57:04.531Z,9.50
2022-11-10T03:59:31.645Z,9.73
2022-11-10T04:01:58.507Z,9.95
2022-11-10T04:04:43.743Z,9.80
2022-11-10T04:07:32.496Z,10.65
2022-11-10T04:09:59.385Z,10.05
2022-11-10T04:12:44.675Z,10.35
2022-11-10T04:15:31.222Z,11.02
2022-11-10T04:18:18.255Z,10.35
2022-11-10T04:20:45.306Z,11.55
2022-11-10T04:23:27.777Z,10.52
2022-11-10T04:26:18.865Z,9.93
2022-11-10T04:28:51.512Z,10.73
2022-11-10T04:31:20.388Z,10.55
2022-11-10T04:33:48.220Z,9.95
2022-11-10T04:36:18.973Z,9.38
2022-11-10T04:38:46.285Z,10.93
2022-11-10T04:41:13.965Z,11.25
2022-11-10T04:43:41.586Z,9.90
2022-11-10T04:46:31.553Z,11.32
2022-11-10T04:48:58.893Z,9.90
2022-11-10T04:51:31.759Z,9.05
2022-11-10T04:53:59.082Z,9.73
2022-11-10T04:56:27.225Z,9.73
2022-11-10T04:58:54.756Z,9.55
2022-11-10T05:01:27.117Z,9.93
2022-11-10T05:03:54.948Z,10.30
2022-11-10T05:06:22.520Z,9.40
2022-11-10T05:08:49.807Z,9.50
2022-11-10T05:11:16.846Z,9.82
2022-11-10T05:13:44.336Z,10.05
2022-11-10T05:16:12.113Z,10.13
2022-11-10T05:18:39.168Z,9.68
2022-11-10T05:21:06.200Z,9.98
2022-11-10T05:23:39.153Z,9.07
2022-11-10T05:26:07.509Z,9.40
2022-11-10T05:28:34.915Z,8.82
2022-11-10T05:31:01.921Z,10.15
2022-11-10T05:33:29.003Z,10.10
2022-11-10T05:35:55.951Z,8.90
2022-11-10T05:38:22.840Z,8.27
2022-11-10T05:40:49.749Z,9.82
2022-11-10T05:43:16.742Z,10.73
2022-11-10T05:45:43.757Z,8.90
2022-11-10T05:48:10.558Z,9.40
2022-11-10T05:50:37.405Z,9.38
2022-11-10T05:53:04.247Z,10.43
2022-11-10T05:55:31.341Z,10.35
2022-11-10T05:57:58.410Z,9.20
2022-11-10T06:00:27.940Z,10.02
2022-11-10T06:03:15.149Z,8.98
2022-11-10T06:05:42.495Z,9.98
2022-11-10T06:08:09.810Z,9.68
2022-11-10T06:10:38.392Z,9.85
2022-11-10T06:13:05.744Z,9.05
2022-11-10T06:15:32.921Z,9.27
2022-11-10T06:17:59.882Z,9.73
2022-11-10T06:20:26.969Z,9.80
2022-11-10T06:23:07.030Z,9.45
2022-11-10T06:25:36.198Z,9.50
2022-11-10T06:28:04.027Z,9.77
2022-11-10T06:30:33.457Z,10.10
2022-11-10T06:33:00.618Z,9.52
2022-11-10T06:35:28.137Z,8.60
2022-11-10T06:38:09.817Z,9.07
2022-11-10T06:40:36.731Z,9.63
2022-11-10T06:43:04.659Z,8.98
2022-11-10T06:45:31.598Z,8.93
2022-11-10T06:48:04.205Z,9.38
2022-11-10T06:50:31.903Z,8.68
2022-11-10T06:53:00.102Z,8.73
2022-11-10T06:55:27.472Z,8.40
2022-11-10T06:57:54.512Z,7.85
2022-11-10T07:00:22.143Z,8.73
2022-11-10T07:02:49.007Z,8.43
2022-11-10T07:05:15.900Z,7.88
2022-11-10T07:07:42.748Z,8.43
2022-11-10T07:10:09.922Z,8.65
2022-11-10T07:12:36.721Z,8.00
2022-11-10T07:15:06.599Z,7.45
2022-11-10T07:17:38.883Z,7.75
2022-11-10T07:20:06.273Z,7.72
2022-11-10T07:22:33.390Z,7.80
2022-11-10T07:25:00.249Z,7.80
2022-11-10T07:27:27.306Z,7.07
2022-11-10T07:29:54.113Z,7.28
2022-11-10T07:32:20.938Z,9.15
2022-11-10T07:34:47.751Z,7.35
2022-11-10T07:37:14.595Z,7.18
2022-11-10T07:39:41.438Z,7.63
2022-11-10T07:42:08.677Z,7.65
2022-11-10T07:44:35.540Z,7.60
2022-11-10T07:47:02.385Z,7.95
2022-11-10T07:49:29.258Z,7.13
2022-11-10T07:51:56.096Z,6.35
2022-11-10T07:54:22.980Z,6.78
2022-11-10T07:56:49.787Z,7.20
2022-11-10T07:59:16.679Z,6.47
2022-11-10T08:01:43.523Z,5.95
2022-11-10T08:04:10.380Z,6.50
2022-11-10T08:06:37.397Z,5.85
2022-11-10T08:09:04.492Z,5.65
2022-11-10T08:15:18.882Z,5.78
2022-11-10T08:17:45.706Z,5.25
2022-11-10T08:20:12.545Z,5.63
2022-11-10T08:22:39.363Z,5.63
2022-11-10T08:25:06.580Z,5.45
2022-11-10T08:27:33.396Z,5.57
2022-11-10T08:30:00.328Z,5.20
2022-11-10T08:32:27.182Z,6.03
2022-11-10T08:34:53.994Z,4.78
2022-11-10T08:37:20.820Z,5.78
2022-11-10T08:39:47.631Z,5.43
2022-11-10T08:42:14.423Z,5.40
2022-11-10T08:44:41.266Z,4.82
2022-11-10T08:47:08.058Z,4.80
2022-11-10T08:49:37.104Z,4.93
2022-11-10T08:52:04.383Z,5.85
2022-11-10T08:54:31.243Z,4.50
2022-11-10T09:00:38.867Z,5.57
2022-11-10T09:03:08.124Z,4.57
2022-11-10T09:05:36.345Z,4.50
2022-11-10T09:08:04.529Z,5.18
2022-11-10T09:14:30.904Z,4.15
2022-11-10T09:16:57.740Z,4.38
2022-11-10T09:19:24.674Z,4.10
2022-11-10T09:21:51.630Z,4.53
2022-11-10T09:24:18.451Z,3.50
2022-11-10T09:26:47.748Z,3.55
2022-11-10T09:29:14.712Z,3.65
2022-11-10T09:31:45.060Z,3.95
2022-11-10T09:37:52.926Z,2.95
2022-11-10T09:40:23.925Z,3.60
2022-11-10T09:42:56.608Z,3.55
2022-11-10T09:45:46.555Z,3.25
2022-11-10T09:48:33.267Z,2.78
2022-11-10T09:51:08.585Z,3.50
2022-11-10T09:53:58.889Z,3.92
2022-11-10T09:56:36.224Z,3.20
2022-11-10T09:59:36.455Z,3.10
2022-11-10T10:02:16.471Z,3.38
2022-11-10T10:05:03.299Z,3.10
2022-11-10T10:07:46.502Z,3.75
2022-11-10T10:10:28.215Z,3.47
2022-11-10T10:13:39.338Z,3.28
2022-11-10T10:16:35.707Z,3.17
2022-11-10T10:19:16.280Z,3.08
2022-11-10T10:21:48.887Z,2.80
2022-11-10T10:24:22.173Z,2.83
2022-11-10T10:26:54.755Z,2.30
2022-11-10T10:29:41.081Z,2.55
2022-11-10T10:32:13.084Z,2.22
2022-11-10T10:34:41.305Z,2.33
2022-11-10T10:37:25.232Z,2.45
2022-11-10T10:39:55.335Z,2.15
2022-11-10T10:42:32.715Z,2.10
2022-11-10T10:45:12.565Z,1.60
2022-11-10T10:47:40.100Z,1.58
2022-11-10T10:50:27.261Z,1.70
2022-11-10T10:53:24.956Z,1.73
2022-11-10T10:56:02.168Z,1.75
2022-11-10T10:58:29.048Z,1.90
2022-11-10T11:00:59.589Z,1.70
2022-11-10T11:03:30.273Z,1.77
2022-11-10T11:06:07.611Z,1.60
2022-11-10T11:08:40.421Z,1.83
2022-11-10T11:14:48.115Z,1.60
2022-11-10T11:17:19.421Z,1.85
2022-11-10T11:19:46.399Z,1.30
2022-11-10T11:22:13.181Z,1.65
2022-11-10T11:25:03.581Z,1.73
2022-11-10T11:27:36.345Z,1.30
2022-11-10T11:30:06.661Z,1.40
2022-11-10T11:36:38.409Z,1.75
2022-11-10T11:39:20.946Z,1.90
2022-11-10T11:42:20.632Z,1.65
2022-11-10T11:45:16.094Z,2.17
2022-11-10T11:48:01.447Z,2.10
2022-11-10T11:50:44.502Z,1.70
2022-11-10T11:53:11.427Z,1.80
2022-11-10T11:55:57.596Z,1.90
2022-11-10T11:58:31.512Z,2.00
2022-11-10T12:01:26.765Z,2.35
2022-11-10T12:04:17.917Z,2.25
2022-11-10T12:07:06.195Z,1.85
2022-11-10T12:09:43.668Z,2.38
2022-11-10T12:12:38.100Z,3.50
2022-11-10T12:15:30.972Z,2.33
2022-11-10T12:18:05.428Z,2.05
2022-11-10T12:20:46.598Z,1.90
2022-11-10T12:23:38.388Z,2.10
2022-11-10T12:26:22.686Z,1.90
2022-11-10T12:29:01.227Z,3.50
2022-11-10T12:31:31.794Z,2.63
2022-11-10T12:34:31.893Z,2.67
2022-11-10T12:37:02.002Z,3.30
2022-11-10T12:40:10.671Z,2.55
2022-11-10T12:42:38.577Z,2.33
2022-11-10T12:45:08.585Z,2.65
2022-11-10T12:47:46.864Z,1.90
2022-11-10T12:50:38.341Z,2.35
2022-11-10T12:53:25.069Z,2.17
2022-11-10T12:56:07.717Z,2.55
2022-11-10T12:58:34.687Z,2.40
2022-11-10T13:01:05.318Z,2.35
2022-11-10T13:03:36.273Z,2.38
2022-11-10T13:06:27.666Z,2.22
2022-11-10T13:08:54.975Z,2.03
2022-11-10T13:11:33.683Z,2.20
2022-11-10T13:14:03.212Z,2.28
2022-11-10T13:16:41.494Z,2.40
2022-11-10T13:19:10.081Z,2.42
2022-11-10T13:21:51.657Z,3.65
2022-11-10T13:24:18.497Z,2.05
2022-11-10T13:26:45.315Z,2.60
2022-11-10T13:29:35.108Z,2.13
2022-11-10T13:32:07.879Z,2.17
2022-11-10T13:34:35.436Z,1.70
2022-11-10T13:37:03.581Z,2.33
2022-11-10T13:39:33.268Z,2.15
2022-11-10T13:42:09.192Z,2.30
2022-11-10T13:44:38.909Z,2.13
2022-11-10T13:47:08.841Z,2.03
2022-11-10T13:49:56.916Z,2.22
2022-11-10T13:52:46.400Z,2.33
2022-11-10T13:55:36.189Z,2.53
2022-11-10T13:58:11.654Z,2.45
2022-11-10T14:00:38.556Z,2.17
2022-11-10T14:03:28.611Z,2.55
2022-11-10T14:06:03.450Z,2.78
2022-11-10T14:08:35.884Z,2.33
2022-11-10T14:15:14.767Z,2.78
2022-11-10T14:17:46.805Z,2.70
2022-11-10T14:20:45.972Z,2.22
2022-11-10T14:23:37.289Z,2.08
2022-11-10T14:26:12.629Z,2.50
2022-11-10T14:28:39.678Z,2.20
2022-11-10T14:31:06.529Z,2.35
2022-11-10T14:33:33.477Z,2.38
2022-11-10T14:36:03.089Z,2.70
2022-11-10T14:38:37.315Z,2.40
2022-11-10T14:41:06.699Z,2.55
2022-11-10T14:43:38.358Z,2.80
2022-11-10T14:46:07.232Z,2.55
2022-11-10T14:48:38.074Z,2.53
2022-11-10T14:51:13.314Z,2.42
2022-11-10T14:53:47.007Z,2.30
2022-11-10T14:56:22.592Z,2.58
2022-11-10T14:58:50.363Z,3.10
2022-11-10T15:01:39.027Z,2.35
2022-11-10T15:04:08.098Z,3.08
2022-11-10T15:06:35.400Z,2.75
2022-11-10T15:09:35.458Z,3.00
2022-11-10T15:12:08.339Z,4.80
2022-11-10T15:14:41.290Z,3.22
2022-11-10T15:17:17.252Z,3.45
2022-11-10T15:19:47.158Z,3.50
2022-11-10T15:22:30.966Z,4.22
2022-11-10T15:25:01.477Z,3.45
2022-11-10T15:27:29.775Z,3.95
2022-11-10T15:30:02.179Z,3.45
2022-11-10T15:32:42.799Z,3.90
2022-11-10T15:35:25.252Z,4.25
2022-11-10T15:38:21.347Z,4.47
2022-11-10T15:40:50.438Z,4.25
2022-11-10T15:43:20.397Z,4.45
2022-11-10T15:46:00.315Z,4.60
2022-11-10T15:48:37.163Z,3.95
2022-11-10T15:51:05.427Z,4.10
2022-11-10T15:53:39.088Z,4.00
2022-11-10T15:56:07.774Z,4.05
2022-11-10T15:58:34.848Z,3.85
2022-11-10T16:01:02.244Z,4.15
2022-11-10T16:03:31.245Z,4.90
2022-11-10T16:05:58.175Z,4.72
2022-11-10T16:08:26.673Z,4.43
2022-11-10T16:10:56.104Z,4.32
2022-11-10T16:13:29.126Z,4.63
2022-11-10T16:15:57.612Z,3.70
2022-11-10T16:18:27.272Z,4.22
2022-11-10T16:20:54.152Z,3.88
2022-11-10T16:23:21.723Z,3.90
2022-11-10T16:25:51.520Z,4.53
2022-11-10T16:28:24.073Z,3.95
2022-11-10T16:30:51.958Z,3.95
2022-11-10T16:33:20.593Z,3.75
2022-11-10T16:35:53.885Z,5.30
2022-11-10T16:38:27.388Z,4.03
2022-11-10T16:40:58.817Z,3.83
2022-11-10T16:43:26.712Z,4.97
2022-11-10T16:45:57.559Z,4.50
2022-11-10T16:48:34.279Z,4.82
2022-11-10T16:51:02.504Z,4.93
2022-11-10T16:57:17.653Z,5.63
2022-11-10T16:59:45.831Z,4.78
2022-11-10T17:02:31.394Z,5.63
2022-11-10T17:04:58.726Z,5.13
2022-11-10T17:07:27.454Z,5.80
2022-11-10T17:09:59.107Z,5.43
2022-11-10T17:12:26.016Z,5.88
2022-11-10T17:14:52.919Z,5.75
2022-11-10T17:17:20.236Z,5.45
2022-11-10T17:19:48.683Z,5.70
2022-11-10T17:22:19.472Z,6.10
2022-11-10T17:24:53.397Z,6.57
2022-11-10T17:27:20.419Z,5.55
2022-11-10T17:29:47.488Z,6.07
2022-11-10T17:32:14.306Z,6.18
2022-11-10T17:34:41.101Z,9.38
2022-11-10T17:37:12.338Z,11.02
2022-11-10T17:39:40.417Z,7.32
2022-11-10T17:42:13.040Z,7.57
2022-11-10T17:44:39.875Z,6.03
2022-11-10T17:47:06.731Z,6.65
2022-11-10T17:49:33.535Z,8.20
2022-11-10T17:52:00.405Z,7.95
2022-11-10T17:54:27.263Z,8.98
2022-11-10T17:56:54.092Z,8.73
2022-11-10T17:59:20.916Z,8.27
2022-11-10T18:01:47.772Z,8.10
2022-11-10T18:04:14.691Z,11.35
2022-11-10T18:06:41.564Z,8.93
2022-11-10T18:09:08.409Z,8.43
2022-11-10T18:11:35.215Z,8.63
2022-11-10T18:14:02.668Z,9.80
2022-11-10T18:16:29.543Z,8.95
2022-11-10T18:18:58.810Z,9.73
2022-11-10T18:21:25.676Z,10.13
2022-11-10T18:23:52.550Z,10.45
2022-11-10T18:26:19.393Z,9.73
2022-11-10T18:28:50.056Z,9.77
2022-11-10T18:31:18.371Z,8.63
2022-11-10T18:33:45.366Z,9.00
2022-11-10T18:36:12.328Z,8.65
2022-11-10T18:38:39.296Z,9.52
2022-11-10T18:41:25.722Z,10.00
2022-11-10T18:43:52.893Z,10.73
2022-11-10T18:46:19.924Z,8.93
2022-11-10T18:48:47.208Z,9.65
2022-11-10T18:51:15.302Z,10.00
2022-11-10T18:53:42.273Z,9.82
2022-11-10T18:56:09.105Z,10.27
2022-11-10T18:58:35.950Z,10.15
2022-11-10T19:01:07.929Z,8.98
2022-11-10T19:03:36.040Z,9.63
2022-11-10T19:06:03.895Z,11.07
2022-11-10T19:08:30.945Z,10.07
2022-11-10T19:10:58.195Z,9.75
2022-11-10T19:13:25.669Z,10.57
2022-11-10T19:15:53.446Z,10.15
2022-11-10T19:18:20.293Z,9.55
2022-11-10T19:20:47.111Z,9.35
2022-11-10T19:23:13.978Z,8.90
2022-11-10T19:25:40.802Z,9.88
2022-11-10T19:28:11.455Z,8.63
2022-11-10T19:30:39.378Z,9.20
2022-11-10T19:33:06.656Z,8.55
2022-11-10T19:35:33.483Z,8.07
2022-11-10T19:38:00.506Z,8.68
2022-11-10T19:40:27.362Z,9.55
2022-11-10T19:42:54.248Z,9.77
2022-11-10T19:45:21.078Z,8.40
2022-11-10T19:47:47.921Z,8.25
2022-11-10T19:50:14.885Z,9.00
2022-11-10T19:52:41.738Z,8.05
2022-11-10T19:55:08.643Z,8.40
2022-11-10T19:57:35.493Z,8.02
2022-11-10T20:00:02.362Z,8.20
2022-11-10T20:02:29.174Z,8.70
2022-11-10T20:05:16.171Z,8.20
2022-11-10T20:08:08.856Z,7.93
2022-11-10T20:10:37.714Z,8.07
2022-11-10T20:13:04.546Z,7.30
2022-11-10T20:15:31.516Z,7.82
2022-11-10T20:17:58.346Z,9.10
2022-11-10T20:20:25.370Z,7.65
2022-11-10T20:22:52.177Z,7.63
2022-11-10T20:25:19.217Z,8.15
2022-11-10T20:27:46.124Z,8.30
2022-11-10T20:30:12.984Z,8.90
2022-11-10T20:32:39.817Z,9.70
2022-11-10T20:35:15.891Z,8.98
2022-11-10T20:37:43.175Z,9.80
2022-11-10T20:40:37.687Z,9.30
2022-11-10T20:42:57.850Z,8.27
2022-11-10T20:45:24.682Z,9.02
2022-11-10T20:47:51.489Z,9.20
2022-11-10T20:50:23.206Z,9.68
2022-11-10T20:52:50.943Z,8.68
2022-11-10T20:55:18.550Z,8.25
2022-11-10T20:57:45.574Z,8.88
2022-11-10T21:00:12.793Z,8.80
2022-11-10T21:02:39.670Z,9.70
2022-11-10T21:05:06.750Z,8.35
2022-11-10T21:07:33.828Z,10.10
2022-11-10T21:10:00.738Z,10.55
2022-11-10T21:12:45.895Z,11.25
2022-11-10T21:15:12.849Z,10.13
2022-11-10T21:17:43.985Z,9.60
2022-11-10T21:20:11.541Z,9.07
2022-11-10T21:22:38.505Z,9.32
2022-11-10T21:25:06.527Z,9.68
2022-11-10T21:27:33.404Z,9.75
2022-11-10T21:30:00.403Z,9.95
2022-11-10T21:32:27.552Z,9.60
2022-11-10T21:34:54.447Z,9.27
2022-11-10T21:41:09.071Z,8.45
2022-11-10T21:43:35.980Z,9.30
2022-11-10T21:46:04.062Z,10.43
2022-11-10T21:48:31.001Z,9.05
2022-11-10T21:51:02.741Z,9.00
2022-11-10T21:53:30.359Z,9.05
2022-11-10T21:56:02.190Z,10.60
2022-11-10T21:58:29.328Z,9.50
2022-11-10T22:01:07.760Z,9.70
2022-11-10T22:03:35.372Z,9.75
2022-11-10T22:06:10.322Z,9.30
2022-11-10T22:08:38.268Z,9.45
2022-11-10T22:11:24.383Z,11.38
2022-11-10T22:14:09.667Z,9.75
2022-11-10T22:17:04.189Z,9.57
2022-11-10T22:19:32.661Z,9.30
2022-11-10T22:22:03.707Z,9.50
2022-11-10T22:24:30.985Z,9.75
2022-11-10T22:27:02.901Z,9.38
2022-11-10T22:29:32.705Z,10.63
2022-11-10T22:32:00.949Z,9.05
2022-11-10T22:34:28.129Z,9.02
2022-11-10T22:36:55.006Z,9.45
2022-11-10T22:39:22.027Z,9.30
2022-11-10T22:42:07.623Z,9.68
2022-11-10T22:44:36.203Z,9.50
2022-11-10T22:47:03.119Z,8.98
2022-11-10T22:49:29.974Z,9.13
2022-11-10T22:51:56.903Z,8.48
2022-11-10T22:54:24.677Z,10.90
2022-11-10T22:56:52.196Z,9.05
2022-11-10T22:59:19.613Z,9.05
2022-11-10T23:01:46.792Z,10.15
2022-11-10T23:04:16.081Z,9.50
2022-11-10T23:06:43.233Z,9.10
2022-11-10T23:09:10.260Z,9.00
2022-11-10T23:11:37.345Z,7.95
2022-11-10T23:14:04.271Z,8.18
2022-11-10T23:16:34.532Z,7.90
2022-11-10T23:19:02.083Z,8.65
2022-11-10T23:21:30.503Z,8.07
2022-11-10T23:23:58.052Z,7.72
2022-11-10T23:26:27.602Z,7.68
2022-11-10T23:28:54.475Z,7.65
2022-11-10T23:31:24.016Z,7.90
2022-11-10T23:33:53.236Z,8.57
2022-11-10T23:36:21.490Z,7.45
2022-11-10T23:38:51.335Z,8.43
2022-11-10T23:41:20.339Z,8.15
2022-11-10T23:43:47.620Z,9.65
2022-11-10T23:46:15.221Z,8.18
2022-11-10T23:48:42.229Z,8.38
2022-11-10T23:51:11.074Z,8.60
2022-11-10T23:53:38.275Z,8.90
2022-11-10T23:56:09.455Z,8.18
2022-11-10T23:58:36.367Z,8.80
